KCQF

H L Sonny Callahan Airport

Fairhope, Alabama, USA
METAR KCQF 212155Z AUTO 24006KT 10SM CLR 28/25 A2992 RMK AO2
Observed Flight Rules
Jun-21 @ 21:55 UTC (12 minutes ago) Visual Flight Rules
Wind Visibility Clouds
240° at 6 knots 10 miles
  • Clear skies
Temperatures Readings
Current 28°C / 82°F
Dewpoint 25°C / 77°F
Humidity 84%
Altimeter 29.92" Hg
Pressure 1013 hPa
Elevation 28
METAR KCQF 212155Z AUTO 24006KT 10SM CLR 28/25 A2992 RMK AO2
Observed Flight Rules
Jun-21 @ 21:55 UTC
(12 minutes ago)
VFR
Wind Visibility
240° at 6 knots 10 miles
Clouds
  • Clear skies
Temperature Dewpoint
28°C / 82°F 25°C / 77°F
Humidity Altimeter Pressure
84% 29.92" Hg 1013 hPa